Jordan Mines, Virginia
Current Conditions -  °F | °C
As of 12:35 PM on Thursday 30 Oct 2014 (Local Time) from KHSP Reporting Station
Overcast Overcast  
Wind Chill: 36°   Ceiling: 1700
Heat Index: 41°   Visibility: 10mi
Dew Point: 32°   Wind: 7mph
Humidity: 71%   Direction: 290°WNW
Pressure: 30.03"   Gusts: NA
Location:  37.7731°N, 80.0632°W
Report Text: KHSP 301635Z AUTO 29006KT 10SM OVC017 05/00 A3003 RMK AO2 T00490000
Loading
Personal Weather Stations






























Interactive Weather Map
Tropical Storm Tracking
New forecast layout! Learn more

10-Day Weather Forecast

Advertisements
Track Severe Weather on mobile